CLD weather

Mc Clellan-Palomar Airport
Carlsbad, California, United States

Public forecast

Using degrees Fahrenheit for public forecast. Weather courtesy of forecast.io.

METAR (pilot weather report)

Retrieved 2019/07/20 07:53 UTC (53 minutes ago):

KCRQ 200753Z AUTO 24004KT 10SM OVC016 20/14 A2994 RMK AO2 SLP136 T02000144 402170183

TAF (pilot weather forecast)

Retrieved 2019/07/20 06:30 UTC (2 hours ago):

TAF KCRQ 200527Z 2006/2106 VRB04KT P6SM BKN015 FM200800 VRB03KT P6SM OVC012 FM201700 25008KT P6SM FEW016 FM210330 VRB04KT P6SM OVC009